sensor_id;sensor_type;location;lat;lon;timestamp;temperature;humidity
52209;DHT22;38507;53.132;6.394;2022-12-08T00:00:52;2.10;99.90
52209;DHT22;38507;53.132;6.394;2022-12-08T00:03:17;2.10;99.90
52209;DHT22;38507;53.132;6.394;2022-12-08T00:05:44;2.10;99.90
52209;DHT22;38507;53.132;6.394;2022-12-08T00:08:34;2.10;99.90
52209;DHT22;38507;53.132;6.394;2022-12-08T00:11:19;2.10;99.90
52209;DHT22;38507;53.132;6.394;2022-12-08T00:13:44;2.10;99.90
52209;DHT22;38507;53.132;6.394;2022-12-08T00:16:10;2.10;99.90
52209;DHT22;38507;53.132;6.394;2022-12-08T00:18:36;2.10;99.90
52209;DHT22;38507;53.132;6.394;2022-12-08T00:21:02;2.20;99.90
52209;DHT22;38507;53.132;6.394;2022-12-08T00:23:28;2.20;99.90
52209;DHT22;38507;53.132;6.394;2022-12-08T00:25:53;2.20;99.90
52209;DHT22;38507;53.132;6.394;2022-12-08T00:28:19;2.20;99.90
52209;DHT22;38507;53.132;6.394;2022-12-08T00:30:45;2.20;99.90
52209;DHT22;38507;53.132;6.394;2022-12-08T00:33:11;2.20;99.90
52209;DHT22;38507;53.132;6.394;2022-12-08T00:35:36;2.20;99.90
52209;DHT22;38507;53.132;6.394;2022-12-08T00:38:02;2.30;99.90
52209;DHT22;38507;53.132;6.394;2022-12-08T00:40:28;2.30;99.90
52209;DHT22;38507;53.132;6.394;2022-12-08T00:42:54;2.30;99.90
52209;DHT22;38507;53.132;6.394;2022-12-08T00:45:20;2.30;99.90
52209;DHT22;38507;53.132;6.394;2022-12-08T00:47:46;2.40;99.90
52209;DHT22;38507;53.132;6.394;2022-12-08T00:50:11;2.40;99.90
52209;DHT22;38507;53.132;6.394;2022-12-08T00:52:37;2.40;99.90
52209;DHT22;38507;53.132;6.394;2022-12-08T00:55:03;2.40;99.90
52209;DHT22;38507;53.132;6.394;2022-12-08T00:57:29;2.40;99.90
52209;DHT22;38507;53.132;6.394;2022-12-08T00:59:55;2.40;99.90
52209;DHT22;38507;53.132;6.394;2022-12-08T01:02:22;2.40;99.90
52209;DHT22;38507;53.132;6.394;2022-12-08T01:04:48;2.40;99.90
52209;DHT22;38507;53.132;6.394;2022-12-08T01:07:13;2.30;99.90
52209;DHT22;38507;53.132;6.394;2022-12-08T01:09:39;2.30;99.90
52209;DHT22;38507;53.132;6.394;2022-12-08T01:12:05;2.30;99.90
52209;DHT22;38507;53.132;6.394;2022-12-08T01:14:31;2.30;99.90
52209;DHT22;38507;53.132;6.394;2022-12-08T01:16:56;2.30;99.90
52209;DHT22;38507;53.132;6.394;2022-12-08T01:19:22;2.30;99.90
52209;DHT22;38507;53.132;6.394;2022-12-08T01:21:47;2.20;99.90
52209;DHT22;38507;53.132;6.394;2022-12-08T01:24:16;2.20;99.90
52209;DHT22;38507;53.132;6.394;2022-12-08T01:26:42;2.20;99.90
52209;DHT22;38507;53.132;6.394;2022-12-08T01:29:08;2.20;99.90
52209;DHT22;38507;53.132;6.394;2022-12-08T01:31:34;2.20;99.90
52209;DHT22;38507;53.132;6.394;2022-12-08T01:34:00;2.10;99.90
52209;DHT22;38507;53.132;6.394;2022-12-08T01:36:28;2.10;99.90
52209;DHT22;38507;53.132;6.394;2022-12-08T01:38:56;2.10;99.90
52209;DHT22;38507;53.132;6.394;2022-12-08T01:41:25;2.10;99.90
52209;DHT22;38507;53.132;6.394;2022-12-08T01:46:42;2.10;99.90
52209;DHT22;38507;53.132;6.394;2022-12-08T01:49:15;2.10;99.90
52209;DHT22;38507;53.132;6.394;2022-12-08T01:51:45;2.10;99.90
52209;DHT22;38507;53.132;6.394;2022-12-08T01:54:13;2.30;99.90
52209;DHT22;38507;53.132;6.394;2022-12-08T01:57:07;2.10;99.90
52209;DHT22;38507;53.132;6.394;2022-12-08T01:59:36;2.10;99.90
52209;DHT22;38507;53.132;6.394;2022-12-08T02:02:03;2.10;99.90
52209;DHT22;38507;53.132;6.394;2022-12-08T02:04:29;2.10;99.90
52209;DHT22;38507;53.132;6.394;2022-12-08T02:06:54;2.10;99.90
52209;DHT22;38507;53.132;6.394;2022-12-08T02:09:20;2.10;99.90
52209;DHT22;38507;53.132;6.394;2022-12-08T02:11:47;2.10;99.90
52209;DHT22;38507;53.132;6.394;2022-12-08T02:14:13;2.10;99.90
52209;DHT22;38507;53.132;6.394;2022-12-08T02:22:41;2.00;99.90
52209;DHT22;38507;53.132;6.394;2022-12-08T02:25:28;2.00;99.90
52209;DHT22;38507;53.132;6.394;2022-12-08T02:31:19;2.10;99.90
52209;DHT22;38507;53.132;6.394;2022-12-08T02:34:14;2.10;99.90
52209;DHT22;38507;53.132;6.394;2022-12-08T02:41:52;2.10;99.90
52209;DHT22;38507;53.132;6.394;2022-12-08T02:47:21;2.10;99.90
52209;DHT22;38507;53.132;6.394;2022-12-08T02:49:47;2.20;99.90
52209;DHT22;38507;53.132;6.394;2022-12-08T02:54:46;2.20;99.90
52209;DHT22;38507;53.132;6.394;2022-12-08T03:05:09;2.20;99.90
52209;DHT22;38507;53.132;6.394;2022-12-08T03:07:52;2.20;99.90
52209;DHT22;38507;53.132;6.394;2022-12-08T03:13:14;2.20;99.90
52209;DHT22;38507;53.132;6.394;2022-12-08T03:15:45;2.20;99.90
52209;DHT22;38507;53.132;6.394;2022-12-08T03:18:15;2.20;99.90
52209;DHT22;38507;53.132;6.394;2022-12-08T03:20:42;2.20;99.90
52209;DHT22;38507;53.132;6.394;2022-12-08T03:23:11;2.10;99.90
52209;DHT22;38507;53.132;6.394;2022-12-08T03:25:42;2.10;99.90
52209;DHT22;38507;53.132;6.394;2022-12-08T03:28:10;2.10;99.90
52209;DHT22;38507;53.132;6.394;2022-12-08T03:30:39;2.10;99.90
52209;DHT22;38507;53.132;6.394;2022-12-08T03:33:11;2.00;99.90
52209;DHT22;38507;53.132;6.394;2022-12-08T03:35:39;2.00;99.90
52209;DHT22;38507;53.132;6.394;2022-12-08T03:38:09;1.90;99.90
52209;DHT22;38507;53.132;6.394;2022-12-08T03:40:36;1.90;99.90
52209;DHT22;38507;53.132;6.394;2022-12-08T03:43:02;1.80;99.90
52209;DHT22;38507;53.132;6.394;2022-12-08T03:45:28;1.80;99.90
52209;DHT22;38507;53.132;6.394;2022-12-08T03:47:54;1.80;99.90
52209;DHT22;38507;53.132;6.394;2022-12-08T03:50:20;1.80;99.90
52209;DHT22;38507;53.132;6.394;2022-12-08T03:52:45;1.70;99.90
52209;DHT22;38507;53.132;6.394;2022-12-08T03:55:11;1.70;99.90
52209;DHT22;38507;53.132;6.394;2022-12-08T03:57:37;1.70;99.90
52209;DHT22;38507;53.132;6.394;2022-12-08T04:00:04;1.70;99.90
52209;DHT22;38507;53.132;6.394;2022-12-08T04:02:31;1.70;99.90
52209;DHT22;38507;53.132;6.394;2022-12-08T04:04:56;1.70;99.90
52209;DHT22;38507;53.132;6.394;2022-12-08T04:07:22;1.70;99.90
52209;DHT22;38507;53.132;6.394;2022-12-08T04:09:47;1.70;99.90
52209;DHT22;38507;53.132;6.394;2022-12-08T04:12:13;1.70;99.90
52209;DHT22;38507;53.132;6.394;2022-12-08T04:14:39;1.60;99.90
52209;DHT22;38507;53.132;6.394;2022-12-08T04:17:04;2.40;99.90
52209;DHT22;38507;53.132;6.394;2022-12-08T04:19:30;1.70;99.90
52209;DHT22;38507;53.132;6.394;2022-12-08T04:21:55;1.60;99.90
52209;DHT22;38507;53.132;6.394;2022-12-08T04:24:21;1.60;99.90
52209;DHT22;38507;53.132;6.394;2022-12-08T04:26:47;1.60;99.90
52209;DHT22;38507;53.132;6.394;2022-12-08T04:29:14;1.60;99.90
52209;DHT22;38507;53.132;6.394;2022-12-08T04:31:40;1.60;99.90
52209;DHT22;38507;53.132;6.394;2022-12-08T04:34:06;1.60;99.90
52209;DHT22;38507;53.132;6.394;2022-12-08T04:36:31;1.60;99.90
52209;DHT22;38507;53.132;6.394;2022-12-08T04:38:57;1.60;99.90
52209;DHT22;38507;53.132;6.394;2022-12-08T04:41:23;1.60;99.90
52209;DHT22;38507;53.132;6.394;2022-12-08T04:43:48;1.60;99.90
52209;DHT22;38507;53.132;6.394;2022-12-08T04:46:14;1.60;99.90
52209;DHT22;38507;53.132;6.394;2022-12-08T04:48:40;1.60;99.90
52209;DHT22;38507;53.132;6.394;2022-12-08T04:51:06;1.60;99.90
52209;DHT22;38507;53.132;6.394;2022-12-08T04:53:32;1.60;99.90
52209;DHT22;38507;53.132;6.394;2022-12-08T04:55:57;1.60;99.90
52209;DHT22;38507;53.132;6.394;2022-12-08T04:58:23;1.60;99.90
52209;DHT22;38507;53.132;6.394;2022-12-08T05:00:49;1.60;99.90
52209;DHT22;38507;53.132;6.394;2022-12-08T05:03:15;1.60;99.90
52209;DHT22;38507;53.132;6.394;2022-12-08T05:05:41;1.60;99.90
52209;DHT22;38507;53.132;6.394;2022-12-08T05:08:09;1.60;99.90
52209;DHT22;38507;53.132;6.394;2022-12-08T05:10:35;1.60;99.90
52209;DHT22;38507;53.132;6.394;2022-12-08T05:13:00;1.50;99.90
52209;DHT22;38507;53.132;6.394;2022-12-08T05:15:26;1.50;99.90
52209;DHT22;38507;53.132;6.394;2022-12-08T05:17:52;1.50;99.90
52209;DHT22;38507;53.132;6.394;2022-12-08T05:20:18;1.50;99.90
52209;DHT22;38507;53.132;6.394;2022-12-08T05:22:44;1.50;99.90
52209;DHT22;38507;53.132;6.394;2022-12-08T05:25:09;1.50;99.90
52209;DHT22;38507;53.132;6.394;2022-12-08T05:27:35;1.50;99.90
52209;DHT22;38507;53.132;6.394;2022-12-08T05:30:01;1.50;99.90
52209;DHT22;38507;53.132;6.394;2022-12-08T05:32:27;1.50;99.90
52209;DHT22;38507;53.132;6.394;2022-12-08T05:34:53;1.60;99.90
52209;DHT22;38507;53.132;6.394;2022-12-08T05:37:18;1.50;99.90
52209;DHT22;38507;53.132;6.394;2022-12-08T05:39:44;1.50;99.90
52209;DHT22;38507;53.132;6.394;2022-12-08T05:42:09;1.50;99.90
52209;DHT22;38507;53.132;6.394;2022-12-08T05:44:35;1.50;99.90
52209;DHT22;38507;53.132;6.394;2022-12-08T05:47:01;1.50;99.90
52209;DHT22;38507;53.132;6.394;2022-12-08T05:49:26;1.40;99.90
52209;DHT22;38507;53.132;6.394;2022-12-08T05:51:52;1.40;99.90
52209;DHT22;38507;53.132;6.394;2022-12-08T05:54:18;1.40;99.90
52209;DHT22;38507;53.132;6.394;2022-12-08T05:56:43;1.40;99.90
52209;DHT22;38507;53.132;6.394;2022-12-08T05:59:12;1.40;99.90
52209;DHT22;38507;53.132;6.394;2022-12-08T06:01:37;1.40;99.90
52209;DHT22;38507;53.132;6.394;2022-12-08T06:04:03;1.40;99.90
52209;DHT22;38507;53.132;6.394;2022-12-08T06:06:30;1.40;99.90
52209;DHT22;38507;53.132;6.394;2022-12-08T06:08:56;1.40;99.90
52209;DHT22;38507;53.132;6.394;2022-12-08T06:11:24;1.40;99.90
52209;DHT22;38507;53.132;6.394;2022-12-08T06:13:50;1.40;99.90
52209;DHT22;38507;53.132;6.394;2022-12-08T06:16:16;1.40;99.90
52209;DHT22;38507;53.132;6.394;2022-12-08T06:18:42;1.40;99.90
52209;DHT22;38507;53.132;6.394;2022-12-08T06:21:10;1.40;99.90
52209;DHT22;38507;53.132;6.394;2022-12-08T06:23:36;1.40;99.90
52209;DHT22;38507;53.132;6.394;2022-12-08T06:26:11;1.40;99.90
52209;DHT22;38507;53.132;6.394;2022-12-08T06:28:37;1.40;99.90
52209;DHT22;38507;53.132;6.394;2022-12-08T06:31:20;1.40;99.90
52209;DHT22;38507;53.132;6.394;2022-12-08T06:33:47;1.40;99.90
52209;DHT22;38507;53.132;6.394;2022-12-08T06:36:15;1.50;99.90
52209;DHT22;38507;53.132;6.394;2022-12-08T06:38:40;1.50;99.90
52209;DHT22;38507;53.132;6.394;2022-12-08T06:41:06;1.90;99.90
52209;DHT22;38507;53.132;6.394;2022-12-08T06:43:32;1.50;99.90
52209;DHT22;38507;53.132;6.394;2022-12-08T06:45:58;1.50;99.90
52209;DHT22;38507;53.132;6.394;2022-12-08T06:48:24;1.50;99.90
52209;DHT22;38507;53.132;6.394;2022-12-08T06:50:50;1.50;99.90
52209;DHT22;38507;53.132;6.394;2022-12-08T06:53:16;1.50;99.90
52209;DHT22;38507;53.132;6.394;2022-12-08T06:55:52;1.50;99.90
52209;DHT22;38507;53.132;6.394;2022-12-08T06:58:18;1.50;99.90
52209;DHT22;38507;53.132;6.394;2022-12-08T07:00:44;1.40;99.90
52209;DHT22;38507;53.132;6.394;2022-12-08T07:03:11;1.40;99.90
52209;DHT22;38507;53.132;6.394;2022-12-08T07:05:37;1.40;99.90
52209;DHT22;38507;53.132;6.394;2022-12-08T07:08:05;1.30;99.90
52209;DHT22;38507;53.132;6.394;2022-12-08T07:10:31;1.30;99.90
52209;DHT22;38507;53.132;6.394;2022-12-08T07:12:57;1.30;99.90
52209;DHT22;38507;53.132;6.394;2022-12-08T07:15:22;1.30;99.90
52209;DHT22;38507;53.132;6.394;2022-12-08T07:17:48;1.30;99.90
52209;DHT22;38507;53.132;6.394;2022-12-08T07:20:14;1.30;99.90
52209;DHT22;38507;53.132;6.394;2022-12-08T07:22:40;1.30;99.90
52209;DHT22;38507;53.132;6.394;2022-12-08T07:25:06;1.30;99.90
52209;DHT22;38507;53.132;6.394;2022-12-08T07:27:32;1.30;99.90
52209;DHT22;38507;53.132;6.394;2022-12-08T07:29:57;1.20;99.90
52209;DHT22;38507;53.132;6.394;2022-12-08T07:32:23;1.20;99.90
52209;DHT22;38507;53.132;6.394;2022-12-08T07:34:49;1.20;99.90
52209;DHT22;38507;53.132;6.394;2022-12-08T07:37:14;1.10;99.90
52209;DHT22;38507;53.132;6.394;2022-12-08T07:39:40;1.10;99.90
52209;DHT22;38507;53.132;6.394;2022-12-08T07:42:06;1.10;99.90
52209;DHT22;38507;53.132;6.394;2022-12-08T07:44:31;1.00;99.90
52209;DHT22;38507;53.132;6.394;2022-12-08T07:46:57;1.00;99.90
52209;DHT22;38507;53.132;6.394;2022-12-08T07:49:22;1.00;99.90
52209;DHT22;38507;53.132;6.394;2022-12-08T07:51:48;1.00;99.90
52209;DHT22;38507;53.132;6.394;2022-12-08T07:54:14;0.90;99.90
52209;DHT22;38507;53.132;6.394;2022-12-08T07:56:39;0.90;99.90
52209;DHT22;38507;53.132;6.394;2022-12-08T07:59:05;0.90;99.90
52209;DHT22;38507;53.132;6.394;2022-12-08T08:01:32;0.80;99.90
52209;DHT22;38507;53.132;6.394;2022-12-08T08:04:00;0.80;99.90
52209;DHT22;38507;53.132;6.394;2022-12-08T08:06:27;0.80;99.90
52209;DHT22;38507;53.132;6.394;2022-12-08T08:08:53;0.80;99.90
52209;DHT22;38507;53.132;6.394;2022-12-08T08:11:19;0.80;99.90
52209;DHT22;38507;53.132;6.394;2022-12-08T08:13:45;0.70;99.90
52209;DHT22;38507;53.132;6.394;2022-12-08T08:16:11;0.70;99.90
52209;DHT22;38507;53.132;6.394;2022-12-08T08:18:39;0.70;99.90
52209;DHT22;38507;53.132;6.394;2022-12-08T08:21:04;0.70;99.90
52209;DHT22;38507;53.132;6.394;2022-12-08T08:23:31;0.70;99.90
52209;DHT22;38507;53.132;6.394;2022-12-08T08:26:01;0.60;99.90
52209;DHT22;38507;53.132;6.394;2022-12-08T08:28:28;0.60;99.90
52209;DHT22;38507;53.132;6.394;2022-12-08T08:30:54;0.60;99.90
52209;DHT22;38507;53.132;6.394;2022-12-08T08:33:20;0.60;99.90
52209;DHT22;38507;53.132;6.394;2022-12-08T08:35:46;0.60;99.90
52209;DHT22;38507;53.132;6.394;2022-12-08T08:38:11;0.60;99.90
52209;DHT22;38507;53.132;6.394;2022-12-08T08:40:37;0.60;99.90
52209;DHT22;38507;53.132;6.394;2022-12-08T08:43:04;0.60;99.90
52209;DHT22;38507;53.132;6.394;2022-12-08T08:45:31;0.60;99.90
52209;DHT22;38507;53.132;6.394;2022-12-08T08:47:57;0.50;99.90
52209;DHT22;38507;53.132;6.394;2022-12-08T08:50:22;0.60;99.90
52209;DHT22;38507;53.132;6.394;2022-12-08T08:52:48;0.50;99.90
52209;DHT22;38507;53.132;6.394;2022-12-08T08:55:14;0.50;99.90
52209;DHT22;38507;53.132;6.394;2022-12-08T08:57:40;0.60;99.90
52209;DHT22;38507;53.132;6.394;2022-12-08T09:00:06;0.60;99.90
52209;DHT22;38507;53.132;6.394;2022-12-08T09:02:35;0.60;99.90
52209;DHT22;38507;53.132;6.394;2022-12-08T09:05:01;0.60;99.90
52209;DHT22;38507;53.132;6.394;2022-12-08T09:07:26;0.70;99.90
52209;DHT22;38507;53.132;6.394;2022-12-08T09:09:52;0.70;99.90
52209;DHT22;38507;53.132;6.394;2022-12-08T09:12:18;0.70;99.90
52209;DHT22;38507;53.132;6.394;2022-12-08T09:14:43;0.80;99.90
52209;DHT22;38507;53.132;6.394;2022-12-08T09:17:10;0.90;99.90
52209;DHT22;38507;53.132;6.394;2022-12-08T09:19:36;0.90;99.90
52209;DHT22;38507;53.132;6.394;2022-12-08T09:22:02;0.90;99.90
52209;DHT22;38507;53.132;6.394;2022-12-08T09:24:27;1.00;99.90
52209;DHT22;38507;53.132;6.394;2022-12-08T09:26:53;1.10;99.90
52209;DHT22;38507;53.132;6.394;2022-12-08T09:29:19;1.20;99.90
52209;DHT22;38507;53.132;6.394;2022-12-08T09:31:44;1.20;99.90
52209;DHT22;38507;53.132;6.394;2022-12-08T09:34:11;1.40;99.90
52209;DHT22;38507;53.132;6.394;2022-12-08T09:36:37;1.50;99.90
52209;DHT22;38507;53.132;6.394;2022-12-08T09:39:03;1.60;99.90
52209;DHT22;38507;53.132;6.394;2022-12-08T09:41:57;1.80;99.90
52209;DHT22;38507;53.132;6.394;2022-12-08T09:46:59;2.00;99.90
52209;DHT22;38507;53.132;6.394;2022-12-08T09:49:34;2.00;99.90
52209;DHT22;38507;53.132;6.394;2022-12-08T09:52:02;2.10;99.90
52209;DHT22;38507;53.132;6.394;2022-12-08T09:54:33;2.10;99.90
52209;DHT22;38507;53.132;6.394;2022-12-08T09:57:04;2.30;99.90
52209;DHT22;38507;53.132;6.394;2022-12-08T09:59:33;2.30;99.90
52209;DHT22;38507;53.132;6.394;2022-12-08T10:02:00;2.50;99.90
52209;DHT22;38507;53.132;6.394;2022-12-08T10:04:31;2.50;99.90
52209;DHT22;38507;53.132;6.394;2022-12-08T10:10:20;2.50;99.90
52209;DHT22;38507;53.132;6.394;2022-12-08T10:15:51;2.60;99.90
52209;DHT22;38507;53.132;6.394;2022-12-08T10:18:25;2.80;99.90
52209;DHT22;38507;53.132;6.394;2022-12-08T10:20:51;3.00;99.90
52209;DHT22;38507;53.132;6.394;2022-12-08T10:23:29;3.20;99.90
52209;DHT22;38507;53.132;6.394;2022-12-08T10:26:00;3.40;99.90
52209;DHT22;38507;53.132;6.394;2022-12-08T10:28:27;4.10;99.90
52209;DHT22;38507;53.132;6.394;2022-12-08T10:30:53;3.70;99.90
52209;DHT22;38507;53.132;6.394;2022-12-08T10:33:20;3.90;99.90
52209;DHT22;38507;53.132;6.394;2022-12-08T10:35:54;4.10;99.90
52209;DHT22;38507;53.132;6.394;2022-12-08T10:38:28;4.30;99.90
52209;DHT22;38507;53.132;6.394;2022-12-08T10:41:10;4.50;99.90
52209;DHT22;38507;53.132;6.394;2022-12-08T10:43:42;4.70;99.90
52209;DHT22;38507;53.132;6.394;2022-12-08T10:46:15;4.90;99.90
52209;DHT22;38507;53.132;6.394;2022-12-08T10:48:54;5.20;99.90
52209;DHT22;38507;53.132;6.394;2022-12-08T10:51:30;5.30;99.90
52209;DHT22;38507;53.132;6.394;2022-12-08T10:53:59;5.60;99.90
52209;DHT22;38507;53.132;6.394;2022-12-08T10:56:29;5.70;99.90
52209;DHT22;38507;53.132;6.394;2022-12-08T10:59:16;5.70;99.90
52209;DHT22;38507;53.132;6.394;2022-12-08T11:01:48;5.70;99.90
52209;DHT22;38507;53.132;6.394;2022-12-08T11:04:37;5.80;99.90
52209;DHT22;38507;53.132;6.394;2022-12-08T11:07:07;5.60;99.90
52209;DHT22;38507;53.132;6.394;2022-12-08T11:09:44;5.60;99.90
52209;DHT22;38507;53.132;6.394;2022-12-08T11:12:18;5.50;99.90
52209;DHT22;38507;53.132;6.394;2022-12-08T11:17:22;5.30;99.90
52209;DHT22;38507;53.132;6.394;2022-12-08T11:19:56;5.30;99.90
52209;DHT22;38507;53.132;6.394;2022-12-08T11:22:40;5.40;99.90
52209;DHT22;38507;53.132;6.394;2022-12-08T11:27:36;5.60;99.90
52209;DHT22;38507;53.132;6.394;2022-12-08T11:30:11;5.70;99.90
52209;DHT22;38507;53.132;6.394;2022-12-08T11:32:40;5.80;99.90
52209;DHT22;38507;53.132;6.394;2022-12-08T11:35:11;5.70;99.90
52209;DHT22;38507;53.132;6.394;2022-12-08T11:37:42;6.30;99.90
52209;DHT22;38507;53.132;6.394;2022-12-08T11:45:35;5.60;99.90
52209;DHT22;38507;53.132;6.394;2022-12-08T11:48:05;5.50;99.90
52209;DHT22;38507;53.132;6.394;2022-12-08T11:53:14;5.50;99.90
52209;DHT22;38507;53.132;6.394;2022-12-08T11:55:46;5.30;99.90
52209;DHT22;38507;53.132;6.394;2022-12-08T11:58:35;5.20;99.90
52209;DHT22;38507;53.132;6.394;2022-12-08T12:01:02;5.20;99.90
52209;DHT22;38507;53.132;6.394;2022-12-08T12:03:40;5.20;99.90
52209;DHT22;38507;53.132;6.394;2022-12-08T12:12:28;4.90;99.90
52209;DHT22;38507;53.132;6.394;2022-12-08T12:18:00;4.70;99.90
52209;DHT22;38507;53.132;6.394;2022-12-08T12:20:32;4.70;99.90
52209;DHT22;38507;53.132;6.394;2022-12-08T12:23:06;4.60;99.90
52209;DHT22;38507;53.132;6.394;2022-12-08T12:25:37;4.70;99.90
52209;DHT22;38507;53.132;6.394;2022-12-08T12:28:11;4.80;99.90
52209;DHT22;38507;53.132;6.394;2022-12-08T12:30:56;5.00;99.90
52209;DHT22;38507;53.132;6.394;2022-12-08T12:33:25;5.20;99.90
52209;DHT22;38507;53.132;6.394;2022-12-08T12:35:51;5.40;99.90
52209;DHT22;38507;53.132;6.394;2022-12-08T12:38:22;5.60;99.90
52209;DHT22;38507;53.132;6.394;2022-12-08T12:41:08;5.80;99.90
52209;DHT22;38507;53.132;6.394;2022-12-08T12:43:36;6.20;99.90
52209;DHT22;38507;53.132;6.394;2022-12-08T13:02:26;5.80;99.90
52209;DHT22;38507;53.132;6.394;2022-12-08T13:05:12;5.70;99.90
52209;DHT22;38507;53.132;6.394;2022-12-08T13:08:07;5.60;99.90
52209;DHT22;38507;53.132;6.394;2022-12-08T13:10:58;5.60;99.90
52209;DHT22;38507;53.132;6.394;2022-12-08T13:13:25;5.60;99.90
52209;DHT22;38507;53.132;6.394;2022-12-08T13:16:13;5.60;99.90
52209;DHT22;38507;53.132;6.394;2022-12-08T13:18:46;5.70;99.90
52209;DHT22;38507;53.132;6.394;2022-12-08T13:21:15;5.80;99.90
52209;DHT22;38507;53.132;6.394;2022-12-08T13:26:43;5.70;99.90
52209;DHT22;38507;53.132;6.394;2022-12-08T13:29:18;5.60;99.90
52209;DHT22;38507;53.132;6.394;2022-12-08T13:31:50;5.70;99.90
52209;DHT22;38507;53.132;6.394;2022-12-08T13:34:20;5.90;99.90
52209;DHT22;38507;53.132;6.394;2022-12-08T13:42:46;5.60;99.90
52209;DHT22;38507;53.132;6.394;2022-12-08T13:45:22;5.50;99.90
52209;DHT22;38507;53.132;6.394;2022-12-08T13:50:25;5.40;99.90
52209;DHT22;38507;53.132;6.394;2022-12-08T13:52:59;5.30;99.90
52209;DHT22;38507;53.132;6.394;2022-12-08T13:55:38;5.20;99.90
52209;DHT22;38507;53.132;6.394;2022-12-08T13:58:04;5.10;99.90
52209;DHT22;38507;53.132;6.394;2022-12-08T14:00:30;5.00;99.90
52209;DHT22;38507;53.132;6.394;2022-12-08T14:02:58;5.00;99.90
52209;DHT22;38507;53.132;6.394;2022-12-08T14:05:26;4.90;99.90
52209;DHT22;38507;53.132;6.394;2022-12-08T14:07:54;5.10;99.90
52209;DHT22;38507;53.132;6.394;2022-12-08T14:10:28;4.80;99.90
52209;DHT22;38507;53.132;6.394;2022-12-08T14:13:05;4.70;99.90
52209;DHT22;38507;53.132;6.394;2022-12-08T14:15:35;4.70;99.90
52209;DHT22;38507;53.132;6.394;2022-12-08T14:18:00;4.70;99.90
52209;DHT22;38507;53.132;6.394;2022-12-08T14:20:30;4.80;99.90
52209;DHT22;38507;53.132;6.394;2022-12-08T14:22:57;4.80;99.90
52209;DHT22;38507;53.132;6.394;2022-12-08T14:25:28;4.80;99.90
52209;DHT22;38507;53.132;6.394;2022-12-08T14:27:59;4.70;99.90
52209;DHT22;38507;53.132;6.394;2022-12-08T14:30:32;4.70;99.90
52209;DHT22;38507;53.132;6.394;2022-12-08T14:33:02;4.60;99.90
52209;DHT22;38507;53.132;6.394;2022-12-08T14:35:33;4.60;99.90
52209;DHT22;38507;53.132;6.394;2022-12-08T14:38:01;4.50;99.90
52209;DHT22;38507;53.132;6.394;2022-12-08T14:40:36;4.50;99.90
52209;DHT22;38507;53.132;6.394;2022-12-08T14:43:13;4.50;99.90
52209;DHT22;38507;53.132;6.394;2022-12-08T14:53:19;4.30;99.90
52209;DHT22;38507;53.132;6.394;2022-12-08T14:55:47;4.20;99.90
52209;DHT22;38507;53.132;6.394;2022-12-08T14:58:27;4.60;99.90
52209;DHT22;38507;53.132;6.394;2022-12-08T15:00:58;3.90;99.90
52209;DHT22;38507;53.132;6.394;2022-12-08T15:03:29;3.80;99.90
52209;DHT22;38507;53.132;6.394;2022-12-08T15:06:03;3.70;99.90
52209;DHT22;38507;53.132;6.394;2022-12-08T15:08:30;3.70;99.90
52209;DHT22;38507;53.132;6.394;2022-12-08T15:11:12;3.50;99.90
52209;DHT22;38507;53.132;6.394;2022-12-08T15:13:46;3.40;99.90
52209;DHT22;38507;53.132;6.394;2022-12-08T15:16:45;3.40;99.90
52209;DHT22;38507;53.132;6.394;2022-12-08T15:19:17;3.30;99.90
52209;DHT22;38507;53.132;6.394;2022-12-08T15:21:45;3.10;99.90
52209;DHT22;38507;53.132;6.394;2022-12-08T15:24:12;3.00;99.90
52209;DHT22;38507;53.132;6.394;2022-12-08T15:26:43;2.90;99.90
52209;DHT22;38507;53.132;6.394;2022-12-08T15:29:12;2.80;99.90
52209;DHT22;38507;53.132;6.394;2022-12-08T15:31:38;2.70;99.90
52209;DHT22;38507;53.132;6.394;2022-12-08T15:34:03;2.60;99.90
52209;DHT22;38507;53.132;6.394;2022-12-08T15:36:29;2.50;99.90
52209;DHT22;38507;53.132;6.394;2022-12-08T15:38:54;2.40;99.90
52209;DHT22;38507;53.132;6.394;2022-12-08T15:41:20;2.40;99.90
52209;DHT22;38507;53.132;6.394;2022-12-08T15:43:46;2.30;99.90
52209;DHT22;38507;53.132;6.394;2022-12-08T15:46:11;2.20;99.90
52209;DHT22;38507;53.132;6.394;2022-12-08T15:48:37;2.10;99.90
52209;DHT22;38507;53.132;6.394;2022-12-08T15:51:03;2.10;99.90
52209;DHT22;38507;53.132;6.394;2022-12-08T15:53:28;2.00;99.90
52209;DHT22;38507;53.132;6.394;2022-12-08T15:55:54;2.00;99.90
52209;DHT22;38507;53.132;6.394;2022-12-08T15:58:23;2.00;99.90
52209;DHT22;38507;53.132;6.394;2022-12-08T16:00:51;1.90;99.90
52209;DHT22;38507;53.132;6.394;2022-12-08T16:03:25;1.90;99.90
52209;DHT22;38507;53.132;6.394;2022-12-08T16:05:55;1.80;99.90
52209;DHT22;38507;53.132;6.394;2022-12-08T16:08:21;1.70;99.90
52209;DHT22;38507;53.132;6.394;2022-12-08T16:10:47;1.60;99.90
52209;DHT22;38507;53.132;6.394;2022-12-08T16:13:18;1.60;99.90
52209;DHT22;38507;53.132;6.394;2022-12-08T16:16:05;1.50;99.90
52209;DHT22;38507;53.132;6.394;2022-12-08T16:18:37;1.40;99.90
52209;DHT22;38507;53.132;6.394;2022-12-08T16:21:03;1.40;99.90
52209;DHT22;38507;53.132;6.394;2022-12-08T16:23:29;1.30;99.90
52209;DHT22;38507;53.132;6.394;2022-12-08T16:25:55;1.30;99.90
52209;DHT22;38507;53.132;6.394;2022-12-08T16:28:21;1.30;99.90
52209;DHT22;38507;53.132;6.394;2022-12-08T16:30:47;1.20;99.90
52209;DHT22;38507;53.132;6.394;2022-12-08T16:33:12;1.40;99.90
52209;DHT22;38507;53.132;6.394;2022-12-08T16:35:39;1.20;99.90
52209;DHT22;38507;53.132;6.394;2022-12-08T16:38:05;1.40;99.90
52209;DHT22;38507;53.132;6.394;2022-12-08T16:40:31;1.10;99.90
52209;DHT22;38507;53.132;6.394;2022-12-08T16:42:57;1.00;99.90
52209;DHT22;38507;53.132;6.394;2022-12-08T16:45:25;1.00;99.90
52209;DHT22;38507;53.132;6.394;2022-12-08T16:47:53;0.90;99.90
52209;DHT22;38507;53.132;6.394;2022-12-08T16:50:23;0.80;99.90
52209;DHT22;38507;53.132;6.394;2022-12-08T16:52:54;0.80;99.90
52209;DHT22;38507;53.132;6.394;2022-12-08T16:55:20;0.80;99.90
52209;DHT22;38507;53.132;6.394;2022-12-08T16:57:46;0.70;99.90
52209;DHT22;38507;53.132;6.394;2022-12-08T17:00:18;0.70;99.90
52209;DHT22;38507;53.132;6.394;2022-12-08T17:02:44;0.60;99.90
52209;DHT22;38507;53.132;6.394;2022-12-08T17:05:13;0.60;99.90
52209;DHT22;38507;53.132;6.394;2022-12-08T17:07:40;0.60;99.90
52209;DHT22;38507;53.132;6.394;2022-12-08T17:10:07;0.50;99.90
52209;DHT22;38507;53.132;6.394;2022-12-08T17:12:34;0.50;99.90
52209;DHT22;38507;53.132;6.394;2022-12-08T17:15:02;0.50;99.90
52209;DHT22;38507;53.132;6.394;2022-12-08T17:17:28;0.40;99.90
52209;DHT22;38507;53.132;6.394;2022-12-08T17:19:54;0.40;99.90
52209;DHT22;38507;53.132;6.394;2022-12-08T17:22:19;0.30;99.90
52209;DHT22;38507;53.132;6.394;2022-12-08T17:24:45;0.30;99.90
52209;DHT22;38507;53.132;6.394;2022-12-08T17:27:10;0.20;99.90
52209;DHT22;38507;53.132;6.394;2022-12-08T17:29:36;0.20;99.90
52209;DHT22;38507;53.132;6.394;2022-12-08T17:32:02;0.10;99.90
52209;DHT22;38507;53.132;6.394;2022-12-08T17:34:27;0.10;99.90